Time;durP1;ratioP1;P1;durP2;ratioP2;P2;SDS_P1;SDS_P2;PMS_P1;PMS_P2;Temp;Humidity;BMP_temperature;BMP_pressure;BME280_temperature;BME280_humidity;BME280_pressure;Samples;Min_cycle;Max_cycle;Signal;HPM_P1;HPM_P2
2023/01/13 00:01:20;;;;;;;2.13;0.90;;;12.00;47.70;;;;;;20484;6851;338399;-72
2023/01/13 00:03:45;;;;;;;1.90;0.90;;;12.10;47.40;;;;;;20482;6851;311117;-72
2023/01/13 00:06:11;;;;;;;1.25;0.73;;;12.30;46.80;;;;;;20682;6851;132775;-72
2023/01/13 00:08:36;;;;;;;1.33;0.70;;;12.20;47.30;;;;;;20694;6851;117588;-72
2023/01/13 00:11:03;;;;;;;0.70;0.70;;;12.00;47.60;;;;;;20483;6851;313355;-72
2023/01/13 00:13:30;;;;;;;1.17;0.73;;;12.00;47.60;;;;;;20701;6851;118807;-72
2023/01/13 00:15:57;;;;;;;0.98;0.60;;;12.00;48.00;;;;;;20479;6851;309353;-72
2023/01/13 00:18:23;;;;;;;1.40;0.80;;;12.10;47.70;;;;;;20677;6851;118875;-73
2023/01/13 00:20:48;;;;;;;2.37;0.60;;;12.00;48.00;;;;;;20710;6851;117368;-72
2023/01/13 00:23:14;;;;;;;2.10;0.90;;;11.80;48.50;;;;;;20669;6851;117420;-72
2023/01/13 00:25:40;;;;;;;0.93;0.43;;;11.60;48.90;;;;;;20710;6851;117794;-72
2023/01/13 00:28:08;;;;;;;1.20;0.70;;;11.50;49.40;;;;;;20485;6849;311349;-72
2023/01/13 00:30:32;;;;;;;1.20;0.60;;;11.60;48.80;;;;;;20683;6850;118497;-72
2023/01/13 00:32:57;;;;;;;1.37;0.68;;;11.70;49.10;;;;;;20686;6851;118611;-72
2023/01/13 00:35:23;;;;;;;1.27;0.50;;;11.60;49.40;;;;;;20494;6851;278828;-72
2023/01/13 00:37:48;;;;;;;0.50;0.50;;;11.70;48.90;;;;;;20684;6851;118483;-72
2023/01/13 00:40:14;;;;;;;1.33;0.70;;;11.70;49.10;;;;;;20680;6851;123156;-72
2023/01/13 00:45:25;;;;;;;1.77;0.82;;;12.10;48.10;;;;;;20493;6851;281665;-72
2023/01/13 00:47:51;;;;;;;2.07;0.60;;;12.10;48.10;;;;;;20699;6851;117510;-73
2023/01/13 00:50:17;;;;;;;0.98;0.50;;;12.10;48.30;;;;;;20668;6851;118440;-73
2023/01/13 00:52:42;;;;;;;1.48;0.68;;;11.90;48.90;;;;;;20494;6851;343152;-72
2023/01/13 00:55:08;;;;;;;1.03;0.83;;;12.00;48.50;;;;;;20703;6851;120578;-72
2023/01/13 00:57:33;;;;;;;1.10;0.60;;;12.00;48.80;;;;;;20493;6851;342710;-73
2023/01/13 00:59:59;;;;;;;2.77;0.60;;;12.10;48.30;;;;;;20714;6851;117305;-72
2023/01/13 01:02:24;;;;;;;0.90;0.60;;;12.10;48.60;;;;;;20694;6851;118980;-73
2023/01/13 01:04:50;;;;;;;0.90;0.65;;;11.80;49.00;;;;;;20477;6851;309381;-73
2023/01/13 01:07:16;;;;;;;1.20;0.70;;;11.90;48.80;;;;;;20485;6851;300011;-72
2023/01/13 01:09:41;;;;;;;1.20;0.70;;;12.20;48.90;;;;;;20487;6851;308506;-72
2023/01/13 01:12:07;;;;;;;0.50;0.50;;;12.50;47.90;;;;;;20701;6851;117178;-77
2023/01/13 01:14:32;;;;;;;2.00;1.00;;;12.30;48.10;;;;;;20321;6851;278565;-72
2023/01/13 01:16:58;;;;;;;1.53;0.73;;;12.30;48.00;;;;;;20491;6851;279089;-71
2023/01/13 01:19:24;;;;;;;2.27;0.70;;;12.50;47.90;;;;;;20698;6851;119002;-72
2023/01/13 01:21:49;;;;;;;0.90;0.50;;;12.40;48.20;;;;;;20710;6851;117338;-72
2023/01/13 01:24:15;;;;;;;1.83;0.90;;;12.10;48.70;;;;;;20475;6851;278277;-72
2023/01/13 01:26:40;;;;;;;1.33;0.60;;;12.20;48.40;;;;;;20490;6851;317130;-72
2023/01/13 01:29:06;;;;;;;1.50;0.70;;;12.40;47.70;;;;;;20490;6851;308372;-72
2023/01/13 01:31:32;;;;;;;1.03;0.70;;;12.80;47.20;;;;;;20484;6851;309280;-71
2023/01/13 01:33:58;;;;;;;0.90;0.60;;;12.90;46.90;;;;;;20490;6851;281409;-72
2023/01/13 01:36:31;;;;;;;0.90;0.70;;;12.90;46.80;;;;;;20674;6851;118630;-72
2023/01/13 01:38:57;;;;;;;0.63;0.47;;;12.70;47.40;;;;;;20699;6849;117715;-72
2023/01/13 01:41:22;;;;;;;1.05;0.65;;;12.30;48.10;;;;;;20488;6850;304363;-72
2023/01/13 01:44:17;;;;;;;2.83;0.62;;;12.30;47.80;;;;;;20702;6851;117691;-72
2023/01/13 01:46:32;;;;;;;1.90;0.90;;;12.20;48.30;;;;;;20365;6851;308809;-72
2023/01/13 01:49:01;;;;;;;2.03;0.60;;;12.20;47.90;;;;;;20704;6851;117251;-72
2023/01/13 01:51:26;;;;;;;1.70;0.90;;;12.10;48.30;;;;;;20359;6851;310911;-72
2023/01/13 01:53:52;;;;;;;0.80;0.73;;;12.20;48.10;;;;;;20694;6851;117701;-72
2023/01/13 01:56:18;;;;;;;1.83;0.68;;;12.20;48.40;;;;;;20463;6851;309608;-72
2023/01/13 01:58:44;;;;;;;1.37;0.80;;;12.20;48.30;;;;;;20478;6851;313039;-72
2023/01/13 02:01:09;;;;;;;0.80;0.80;;;12.40;47.80;;;;;;20665;6851;118448;-72
2023/01/13 02:03:34;;;;;;;1.07;0.60;;;12.30;48.10;;;;;;20682;6851;117671;-72
2023/01/13 02:06:01;;;;;;;1.23;0.70;;;12.10;48.40;;;;;;20476;6851;303398;-72
2023/01/13 02:08:26;;;;;;;0.50;0.50;;;12.10;48.40;;;;;;20678;6851;121790;-72
2023/01/13 02:10:52;;;;;;;0.87;0.67;;;12.00;48.70;;;;;;20476;6851;337327;-72
2023/01/13 02:13:18;;;;;;;1.00;0.60;;;12.30;47.90;;;;;;20474;6851;279431;-72
2023/01/13 02:16:10;;;;;;;1.47;0.80;;;12.30;47.80;;;;;;20450;6851;311535;-72
2023/01/13 02:18:45;;;;;;;0.93;0.47;;;12.60;47.50;;;;;;20672;6851;117565;-73
2023/01/13 02:21:20;;;;;;;1.57;0.70;;;12.40;48.00;;;;;;20462;6851;307232;-72
2023/01/13 02:27:16;;;;;;;2.47;0.90;;;11.90;49.10;;;;;;20683;6851;117932;-72
2023/01/13 02:32:34;;;;;;;1.90;0.90;;;12.00;49.40;;;;;;20453;6851;311545;-72
2023/01/13 02:35:13;;;;;;;1.13;0.50;;;12.30;49.00;;;;;;20651;6851;117410;-73
2023/01/13 02:37:38;;;;;;;0.47;0.43;;;12.20;49.10;;;;;;20671;6851;119228;-72
2023/01/13 02:40:07;;;;;;;1.23;0.60;;;11.90;49.60;;;;;;20665;6851;117171;-72
2023/01/13 02:45:22;;;;;;;1.83;0.63;;;11.80;49.80;;;;;;20687;6851;117324;-72
2023/01/13 02:47:49;;;;;;;1.27;0.70;;;11.80;50.00;;;;;;20328;6851;313707;-72
2023/01/13 02:50:16;;;;;;;0.80;0.40;;;11.90;50.00;;;;;;20657;6849;146445;-72
2023/01/13 02:52:51;;;;;;;1.40;0.60;;;11.90;50.10;;;;;;20658;6850;118628;-72
2023/01/13 02:55:17;;;;;;;1.23;0.70;;;11.60;50.50;;;;;;20681;6851;120289;-72
2023/01/13 02:57:42;;;;;;;1.05;0.60;;;11.40;50.60;;;;;;20457;6851;340996;-71
2023/01/13 03:00:08;;;;;;;0.77;0.57;;;11.60;50.70;;;;;;20583;6851;118919;-72
2023/01/13 03:02:34;;;;;;;1.53;0.80;;;11.50;50.70;;;;;;20446;6851;307961;-72
2023/01/13 03:04:59;;;;;;;1.40;0.80;;;11.70;50.20;;;;;;20479;6851;281680;-71
2023/01/13 03:08:05;;;;;;;1.25;0.90;;;12.20;49.30;;;;;;20422;6851;308883;-72
2023/01/13 03:10:39;;;;;;;0.67;0.60;;;12.20;49.20;;;;;;20661;6851;118469;-73
2023/01/13 03:13:26;;;;;;;0.90;0.90;;;11.70;50.10;;;;;;20646;6851;117742;-72
2023/01/13 03:16:17;;;;;;;1.43;0.70;;;11.70;50.10;;;;;;20678;6851;117730;-73
2023/01/13 03:18:56;;;;;;;1.13;0.80;;;11.40;50.60;;;;;;20473;6851;308783;-71
2023/01/13 03:21:24;;;;;;;1.70;0.70;;;11.60;50.30;;;;;;20453;6851;311999;-71
2023/01/13 03:24:00;;;;;;;1.20;0.80;;;11.90;49.70;;;;;;20464;6851;281560;-72
2023/01/13 03:26:25;;;;;;;1.73;0.82;;;12.20;49.00;;;;;;20423;6851;313535;-72
2023/01/13 03:28:51;;;;;;;0.90;0.73;;;12.60;48.30;;;;;;20444;6851;280333;-72
2023/01/13 03:31:20;;;;;;;0.70;0.50;;;12.50;48.20;;;;;;20662;6851;117990;-71
2023/01/13 03:33:46;;;;;;;1.03;0.50;;;12.40;48.80;;;;;;20669;6851;117322;-72
2023/01/13 03:36:11;;;;;;;0.33;0.33;;;12.10;49.40;;;;;;20640;6851;119392;-72
2023/01/13 03:38:37;;;;;;;1.13;0.63;;;11.80;50.00;;;;;;20461;6851;308156;-72
2023/01/13 03:41:09;;;;;;;1.60;0.60;;;11.90;49.70;;;;;;20452;6851;278703;-72
2023/01/13 03:46:20;;;;;;;0.73;0.50;;;12.40;48.90;;;;;;20656;6851;130983;-71
2023/01/13 03:48:45;;;;;;;0.98;0.50;;;12.30;49.20;;;;;;20444;6851;333741;-72
2023/01/13 03:51:11;;;;;;;0.93;0.50;;;12.30;49.10;;;;;;20664;6851;117709;-72
2023/01/13 03:53:37;;;;;;;1.12;0.52;;;12.20;49.40;;;;;;20649;6851;118538;-72
2023/01/13 03:56:12;;;;;;;0.55;0.47;;;12.00;49.90;;;;;;20659;6851;117294;-73
2023/01/13 03:58:38;;;;;;;0.57;0.33;;;11.80;50.30;;;;;;20657;6851;118624;-72
2023/01/13 04:01:04;;;;;;;1.30;0.60;;;11.70;51.10;;;;;;20449;6849;308627;-72
2023/01/13 04:03:37;;;;;;;1.37;0.70;;;12.00;50.00;;;;;;20450;6850;314068;-72
2023/01/13 04:06:03;;;;;;;0.70;0.60;;;12.10;50.00;;;;;;20466;6851;279509;-72
2023/01/13 04:08:28;;;;;;;0.47;0.40;;;12.40;49.40;;;;;;20568;6851;119899;-72
2023/01/13 04:10:54;;;;;;;1.37;0.50;;;12.30;49.60;;;;;;20470;6851;308529;-72
2023/01/13 04:13:19;;;;;;;0.80;0.50;;;12.30;49.20;;;;;;20458;6851;313872;-73
2023/01/13 04:15:45;;;;;;;0.50;0.50;;;12.50;48.90;;;;;;20679;6851;121037;-72
2023/01/13 04:18:17;;;;;;;0.80;0.30;;;12.40;49.20;;;;;;20669;6851;118607;-72
2023/01/13 04:20:43;;;;;;;0.80;0.53;;;12.20;49.80;;;;;;20445;6851;320605;-72
2023/01/13 04:23:08;;;;;;;1.13;0.60;;;12.20;49.50;;;;;;20671;6851;117711;-72
2023/01/13 04:25:34;;;;;;;1.10;0.40;;;12.20;49.80;;;;;;20686;6851;118525;-72
2023/01/13 04:28:00;;;;;;;1.25;0.50;;;12.00;50.20;;;;;;20473;6851;283734;-71
2023/01/13 04:30:25;;;;;;;1.80;0.60;;;12.10;49.80;;;;;;20455;6851;283850;-73
2023/01/13 04:32:50;;;;;;;0.90;0.50;;;12.40;49.70;;;;;;20465;6851;312230;-73
2023/01/13 04:35:16;;;;;;;0.97;0.60;;;12.60;49.00;;;;;;20473;6851;279068;-72
2023/01/13 04:37:42;;;;;;;1.13;0.50;;;12.80;48.40;;;;;;20478;6851;279574;-73
2023/01/13 04:40:07;;;;;;;1.47;0.30;;;12.90;48.10;;;;;;20688;6851;121876;-72
2023/01/13 04:42:33;;;;;;;0.50;0.30;;;12.80;48.60;;;;;;20680;6851;117914;-72
2023/01/13 04:44:59;;;;;;;2.00;0.37;;;12.40;49.20;;;;;;20671;6851;117232;-73
2023/01/13 04:47:24;;;;;;;1.30;0.50;;;12.20;49.90;;;;;;20470;6851;309473;-74
2023/01/13 04:49:50;;;;;;;1.77;0.65;;;12.20;49.70;;;;;;20689;6851;117495;-73
2023/01/13 04:52:15;;;;;;;0.50;0.47;;;12.10;49.80;;;;;;20653;6851;119046;-74
2023/01/13 04:54:41;;;;;;;1.73;0.30;;;12.00;50.30;;;;;;20685;6851;117537;-71
2023/01/13 04:57:06;;;;;;;0.80;0.50;;;11.80;50.60;;;;;;20398;6851;320309;-74
2023/01/13 04:59:32;;;;;;;0.63;0.40;;;11.90;50.00;;;;;;20368;6851;319881;-74
2023/01/13 05:01:57;;;;;;;0.35;0.32;;;12.30;49.50;;;;;;20659;6851;118334;-73
2023/01/13 05:04:23;;;;;;;0.40;0.40;;;12.20;49.50;;;;;;20429;6851;282479;-75
2023/01/13 05:06:49;;;;;;;0.75;0.37;;;12.30;49.10;;;;;;20459;6851;312296;-74
2023/01/13 05:09:16;;;;;;;0.50;0.40;;;12.50;48.70;;;;;;20678;6851;117333;-74
2023/01/13 05:17:12;;;;;;;0.60;0.30;;;12.20;49.00;;;;;;20403;6851;281622;-73
2023/01/13 05:19:39;;;;;;;0.30;0.30;;;12.50;48.50;;;;;;20404;6851;278110;-75
2023/01/13 05:27:35;;;;;;;0.67;0.53;;;12.20;49.10;;;;;;20686;6851;117372;-73
2023/01/13 05:30:00;;;;;;;0.37;0.20;;;11.90;49.70;;;;;;20688;6851;117301;-73
2023/01/13 05:32:26;;;;;;;0.20;0.20;;;11.70;50.20;;;;;;20656;6851;120104;-72
2023/01/13 05:34:52;;;;;;;0.50;0.30;;;11.70;50.30;;;;;;20466;6851;319178;-71
2023/01/13 05:37:18;;;;;;;0.30;0.20;;;11.70;50.30;;;;;;20474;6851;282912;-72
2023/01/13 05:45:15;;;;;;;0.40;0.30;;;11.90;49.90;;;;;;20685;6851;117220;-72
2023/01/13 05:47:43;;;;;;;0.20;0.20;;;11.90;49.90;;;;;;20682;6851;69234;-74
2023/01/13 05:50:09;;;;;;;0.30;0.30;;;11.70;50.40;;;;;;20658;6851;147401;-74
2023/01/13 05:52:55;;;;;;;0.25;0.25;;;11.50;50.80;;;;;;20683;6851;118999;-74
2023/01/13 05:55:30;;;;;;;0.30;0.30;;;11.40;51.80;;;;;;20616;6753;306107;-75
2023/01/13 05:58:09;;;;;;;0.20;0.20;;;11.60;50.80;;;;;;20776;6772;122848;-75
2023/01/13 06:00:44;;;;;;;0.20;0.20;;;11.70;50.80;;;;;;20594;6771;336572;-74
2023/01/13 06:03:20;;;;;;;1.10;0.20;;;11.90;50.40;;;;;;20791;6763;117653;-75
2023/01/13 06:05:58;;;;;;;0.23;0.20;;;11.80;50.50;;;;;;20809;6762;117654;-76
2023/01/13 06:08:32;;;;;;;0.70;0.20;;;11.80;50.50;;;;;;20480;6753;292748;-76
2023/01/13 06:11:08;;;;;;;0.47;0.30;;;11.80;50.50;;;;;;20787;6767;119326;-76
2023/01/13 06:13:48;;;;;;;0.20;0.10;;;11.80;50.70;;;;;;20822;6748;117232;-76
2023/01/13 06:16:21;;;;;;;0.47;0.30;;;11.60;51.00;;;;;;20630;6757;309619;-77
2023/01/13 06:18:57;;;;;;;0.60;0.30;;;11.80;50.80;;;;;;20506;6748;312780;-78
2023/01/13 06:21:34;;;;;;;0.60;0.30;;;12.10;50.30;;;;;;20626;6748;334946;-77
2023/01/13 06:24:10;;;;;;;0.30;0.20;;;12.40;49.70;;;;;;20593;6748;305129;-76
2023/01/13 06:26:45;;;;;;;0.20;0.20;;;12.60;49.50;;;;;;20763;6760;117541;-75
2023/01/13 06:29:21;;;;;;;0.20;0.20;;;12.40;49.70;;;;;;20428;6747;283086;-75
2023/01/13 06:31:56;;;;;;;0.60;0.20;;;12.40;49.70;;;;;;20799;6747;116995;-75
2023/01/13 06:34:32;;;;;;;0.30;0.30;;;12.20;50.00;;;;;;20586;6747;340365;-75
2023/01/13 06:37:08;;;;;;;0.27;0.27;;;12.30;49.90;;;;;;20857;6748;117048;-75
2023/01/13 06:39:43;;;;;;;0.30;0.10;;;12.10;50.10;;;;;;20442;6748;278460;-76
2023/01/13 06:45:18;;;;;;;0.30;0.30;;;12.40;49.90;;;;;;20580;6763;277942;-76
2023/01/13 06:47:50;;;;;;;0.50;0.20;;;12.60;49.50;;;;;;20489;6775;340418;-77
2023/01/13 06:50:27;;;;;;;0.28;0.28;;;12.80;48.90;;;;;;20603;6748;277193;-76
2023/01/13 06:53:02;;;;;;;0.50;0.30;;;12.80;48.90;;;;;;20649;6748;282616;-77
2023/01/13 06:55:38;;;;;;;0.98;0.30;;;12.90;48.60;;;;;;20662;6748;305140;-78
2023/01/13 06:58:14;;;;;;;0.10;0.10;;;12.90;48.60;;;;;;20785;6748;119242;-80
2023/01/13 07:00:50;;;;;;;0.27;0.27;;;12.70;49.10;;;;;;20780;6763;117853;-77
2023/01/13 07:03:27;;;;;;;0.40;0.40;;;12.30;49.90;;;;;;20787;6760;117561;-77
2023/01/13 07:06:03;;;;;;;0.53;0.40;;;11.90;50.50;;;;;;20658;6749;276452;-83
2023/01/13 07:08:40;;;;;;;0.70;0.20;;;12.30;49.90;;;;;;20504;6765;309413;-78
2023/01/13 07:11:16;;;;;;;0.60;0.20;;;12.30;49.80;;;;;;20689;6735;304691;-78
2023/01/13 07:16:51;;;;;;;0.30;0.20;;;12.70;49.20;;;;;;20712;6718;309089;-78
2023/01/13 07:19:24;;;;;;;0.30;0.30;;;12.80;48.80;;;;;;20677;6743;118066;-79
2023/01/13 07:22:00;;;;;;;0.30;0.30;;;12.20;49.90;;;;;;20902;6723;118075;-79
2023/01/13 07:24:37;;;;;;;1.47;0.30;;;12.20;49.90;;;;;;20904;6717;116940;-78
2023/01/13 07:27:13;;;;;;;0.57;0.30;;;12.00;50.40;;;;;;20722;6723;275533;-81
2023/01/13 07:29:49;;;;;;;0.20;0.20;;;12.00;50.40;;;;;;20713;6742;120098;-79
2023/01/13 07:32:24;;;;;;;0.47;0.30;;;12.00;50.60;;;;;;20789;6756;121761;-77
2023/01/13 07:35:04;;;;;;;0.60;0.20;;;11.70;50.90;;;;;;20530;6775;280391;-79
2023/01/13 07:37:35;;;;;;;0.20;0.20;;;11.90;50.80;;;;;;20793;6753;116991;-81
2023/01/13 07:40:11;;;;;;;1.60;0.50;;;11.90;50.80;;;;;;20769;6767;118593;-81
2023/01/13 07:45:43;;;;;;;0.30;0.30;;;11.80;51.20;;;;;;20569;6772;310243;-78
2023/01/13 07:48:18;;;;;;;0.20;0.20;;;11.70;51.10;;;;;;20613;6781;117311;-79
2023/01/13 07:50:54;;;;;;;0.50;0.30;;;11.80;51.20;;;;;;20528;6776;277638;-78
2023/01/13 07:53:30;;;;;;;0.50;0.40;;;11.90;50.80;;;;;;20494;6788;278073;-76
2023/01/13 07:56:05;;;;;;;0.30;0.20;;;12.30;50.40;;;;;;20684;6803;117392;-75
2023/01/13 07:58:41;;;;;;;0.70;0.23;;;12.20;50.40;;;;;;20625;6794;118079;-73
2023/01/13 08:01:17;;;;;;;0.30;0.30;;;12.00;51.00;;;;;;20569;6764;336150;-73
2023/01/13 08:03:52;;;;;;;0.37;0.28;;;12.10;50.80;;;;;;20579;6758;280114;-73
2023/01/13 08:06:29;;;;;;;0.20;0.20;;;12.40;50.40;;;;;;20496;6782;307896;-73
2023/01/13 08:09:05;;;;;;;0.27;0.20;;;12.60;49.90;;;;;;20475;6771;283209;-73
2023/01/13 08:11:40;;;;;;;0.70;0.65;;;12.80;49.30;;;;;;20485;6793;307737;-74
2023/01/13 08:14:16;;;;;;;0.20;0.20;;;12.90;49.50;;;;;;20771;6773;117697;-74
2023/01/13 08:16:51;;;;;;;0.30;0.30;;;12.70;49.30;;;;;;20527;6775;311483;-74
2023/01/13 08:19:27;;;;;;;0.70;0.30;;;12.70;49.30;;;;;;20619;6771;117909;-75
2023/01/13 08:22:02;;;;;;;0.57;0.30;;;12.60;49.80;;;;;;20561;6769;277618;-72
2023/01/13 08:24:41;;;;;;;0.47;0.30;;;12.80;49.60;;;;;;20588;6748;305002;-75
2023/01/13 08:27:14;;;;;;;0.30;0.30;;;12.80;49.60;;;;;;20835;6749;118712;-74
2023/01/13 08:29:50;;;;;;;0.33;0.30;;;12.70;49.80;;;;;;20670;6749;117289;-75
2023/01/13 08:32:25;;;;;;;1.35;0.40;;;12.50;50.50;;;;;;20602;6749;275535;-75
2023/01/13 08:35:01;;;;;;;0.40;0.17;;;12.60;52.10;;;;;;20830;6749;121066;-75
2023/01/13 08:37:37;;;;;;;1.20;0.30;;;12.50;52.10;;;;;;20585;6768;307219;-75
2023/01/13 08:40:12;;;;;;;0.30;0.30;;;12.50;53.30;;;;;;20554;6771;307737;-75
2023/01/13 08:42:48;;;;;;;0.40;0.40;;;12.70;53.90;;;;;;20575;6780;277680;-75
2023/01/13 08:45:23;;;;;;;0.90;0.30;;;12.80;53.90;;;;;;20814;6771;118519;-75
2023/01/13 08:48:00;;;;;;;2.20;2.10;;;12.60;54.90;;;;;;20559;6771;338540;-75
2023/01/13 08:50:35;;;;;;;5.20;4.80;;;12.60;54.80;;;;;;20796;6764;121093;-75
2023/01/13 08:53:11;;;;;;;2.50;2.40;;;12.40;54.60;;;;;;20572;6777;336281;-75
2023/01/13 08:55:46;;;;;;;3.77;3.57;;;12.40;55.00;;;;;;20574;6777;279275;-75
2023/01/13 08:58:23;;;;;;;1.80;1.70;;;12.80;54.80;;;;;;20485;6777;327125;-75
2023/01/13 09:00:58;;;;;;;1.80;1.70;;;12.70;54.70;;;;;;20558;6778;334889;-75
2023/01/13 09:03:34;;;;;;;1.10;1.10;;;12.80;54.70;;;;;;20779;6778;118537;-75
2023/01/13 09:06:09;;;;;;;1.42;1.33;;;12.60;54.80;;;;;;20588;6750;307529;-75
2023/01/13 09:08:45;;;;;;;2.80;2.60;;;12.50;55.40;;;;;;20507;6747;309980;-75
2023/01/13 09:14:22;;;;;;;1.70;1.60;;;12.70;55.00;;;;;;20819;6752;118049;-75
2023/01/13 09:16:55;;;;;;;0.97;0.97;;;12.40;55.00;;;;;;20851;6747;117434;-75
2023/01/13 09:19:30;;;;;;;0.90;0.90;;;12.00;55.50;;;;;;20663;6743;117472;-74
2023/01/13 09:22:07;;;;;;;1.60;1.50;;;11.50;56.60;;;;;;20758;6781;118358;-73
2023/01/13 09:24:42;;;;;;;0.70;0.70;;;11.50;56.60;;;;;;20792;6767;117903;-74
2023/01/13 09:27:18;;;;;;;1.20;1.20;;;11.30;56.90;;;;;;20705;6797;118618;-74
2023/01/13 09:29:53;;;;;;;1.27;1.27;;;11.10;57.10;;;;;;20611;6822;118186;-74
2023/01/13 09:32:29;;;;;;;2.03;1.30;;;11.00;57.40;;;;;;20810;6747;117913;-74
2023/01/13 09:35:05;;;;;;;0.75;0.75;;;10.90;57.70;;;;;;20592;6753;338843;-75
2023/01/13 09:37:40;;;;;;;1.73;1.63;;;11.20;58.50;;;;;;20752;6768;122240;-74
2023/01/13 09:40:16;;;;;;;0.88;0.85;;;11.30;58.10;;;;;;20605;6747;280854;-74
2023/01/13 09:45:48;;;;;;;0.50;0.50;;;11.60;58.10;;;;;;20587;6754;340807;-75
2023/01/13 09:48:22;;;;;;;0.60;0.60;;;11.80;58.30;;;;;;20483;6812;280020;-75
2023/01/13 09:51:05;;;;;;;0.70;0.30;;;12.30;57.00;;;;;;20613;6749;300018;-75
2023/01/13 09:53:44;;;;;;;0.60;0.60;;;12.30;57.00;;;;;;20516;6778;309339;-75
2023/01/13 09:56:19;;;;;;;1.40;0.50;;;12.50;56.70;;;;;;20715;6778;117650;-75
2023/01/13 09:58:55;;;;;;;0.40;0.40;;;12.20;56.50;;;;;;20672;6764;118686;-74
2023/01/13 10:01:40;;;;;;;0.60;0.40;;;11.70;57.00;;;;;;20828;6748;117177;-75
2023/01/13 10:04:16;;;;;;;0.70;0.37;;;11.30;57.50;;;;;;20541;6763;278046;-75
2023/01/13 10:06:52;;;;;;;0.60;0.60;;;11.40;58.00;;;;;;20751;6768;117464;-75
2023/01/13 10:09:47;;;;;;;0.70;0.70;;;11.20;57.60;;;;;;20570;6785;117498;-75
2023/01/13 10:15:22;;;;;;;0.73;0.73;;;11.00;58.90;;;;;;20695;6788;119437;-74
2023/01/13 10:18:07;;;;;;;2.20;2.10;;;10.80;58.40;;;;;;20624;6786;123568;-74
2023/01/13 10:21:06;;;;;;;0.40;0.40;;;10.50;58.80;;;;;;20743;6773;117406;-74
2023/01/13 10:23:52;;;;;;;0.90;0.90;;;10.30;59.40;;;;;;20400;6810;121602;-75
2023/01/13 10:26:44;;;;;;;2.20;1.20;;;9.90;61.30;;;;;;20736;6768;118422;-75
2023/01/13 10:29:22;;;;;;;1.17;0.70;;;9.90;61.30;;;;;;20621;6772;117405;-76
2023/01/13 10:31:54;;;;;;;0.73;0.73;;;9.90;61.70;;;;;;20485;6787;298899;-75
2023/01/13 10:34:29;;;;;;;0.70;0.50;;;10.10;61.40;;;;;;20578;6772;310801;-75
2023/01/13 10:37:05;;;;;;;1.90;1.33;;;10.60;60.80;;;;;;20601;6775;286163;-75
2023/01/13 10:39:40;;;;;;;2.70;2.50;;;11.00;59.90;;;;;;20398;6775;309964;-73
2023/01/13 10:42:16;;;;;;;3.60;3.40;;;11.20;58.70;;;;;;20442;6784;280816;-74
2023/01/13 10:44:51;;;;;;;0.80;0.80;;;11.40;58.90;;;;;;20546;6786;292848;-74
2023/01/13 10:47:34;;;;;;;0.20;0.20;;;11.60;59.40;;;;;;20521;6774;310035;-74
2023/01/13 10:50:10;;;;;;;0.93;0.20;;;11.80;59.20;;;;;;20778;6762;117312;-75
2023/01/13 10:52:59;;;;;;;1.00;0.40;;;11.80;59.60;;;;;;20784;6758;117474;-75
2023/01/13 10:55:36;;;;;;;0.63;0.63;;;11.70;60.80;;;;;;20724;6818;117150;-75
2023/01/13 10:58:17;;;;;;;2.77;2.23;;;11.60;60.70;;;;;;20746;6759;119510;-72
2023/01/13 11:00:59;;;;;;;1.80;1.70;;;11.50;60.90;;;;;;20882;6732;119259;-73
2023/01/13 11:03:36;;;;;;;1.93;1.67;;;11.40;60.90;;;;;;20892;6732;117026;-75
2023/01/13 11:06:21;;;;;;;2.37;2.27;;;11.30;60.80;;;;;;20651;6732;278023;-75
2023/01/13 11:08:57;;;;;;;0.40;0.40;;;11.60;60.10;;;;;;20749;6732;117360;-74
2023/01/13 11:11:39;;;;;;;0.30;0.27;;;11.50;59.10;;;;;;20880;6732;117148;-72
2023/01/13 11:14:38;;;;;;;0.30;0.30;;;11.20;59.00;;;;;;20725;6755;117141;-73
2023/01/13 11:17:39;;;;;;;0.60;0.30;;;10.90;57.20;;;;;;20718;6772;119989;-73
2023/01/13 11:20:30;;;;;;;1.30;0.73;;;10.20;56.90;;;;;;20476;6784;276768;-74
2023/01/13 11:23:02;;;;;;;0.70;0.70;;;9.80;57.90;;;;;;20713;6788;118806;-73
2023/01/13 11:25:41;;;;;;;24.20;14.00;;;9.80;57.90;;;;;;20515;6786;337985;-73
2023/01/13 11:28:22;;;;;;;1.23;1.00;;;9.80;58.70;;;;;;20691;6770;149372;-73
2023/01/13 11:31:18;;;;;;;0.70;0.63;;;9.70;58.70;;;;;;20570;6768;308248;-73
2023/01/13 11:34:17;;;;;;;1.02;0.88;;;9.90;57.80;;;;;;20589;6768;305631;-77
2023/01/13 11:36:53;;;;;;;0.85;0.60;;;9.90;57.60;;;;;;20578;6768;295052;-73
2023/01/13 11:39:28;;;;;;;0.30;0.30;;;10.10;56.50;;;;;;20590;6771;122029;-73
2023/01/13 11:42:21;;;;;;;1.20;1.20;;;9.80;57.60;;;;;;20556;6767;340147;-72
2023/01/13 11:45:09;;;;;;;3.50;1.20;;;9.80;58.10;;;;;;20564;6767;292672;-74
2023/01/13 11:47:45;;;;;;;0.73;0.60;;;9.90;57.60;;;;;;20570;6762;307216;-72
2023/01/13 11:50:22;;;;;;;0.90;0.90;;;10.10;56.70;;;;;;20528;6764;277181;-73
2023/01/13 11:53:14;;;;;;;0.53;0.40;;;10.20;55.80;;;;;;20747;6773;117413;-72
2023/01/13 11:56:25;;;;;;;1.00;0.50;;;9.70;56.20;;;;;;20596;6755;305676;-73
2023/01/13 11:59:15;;;;;;;1.00;0.50;;;9.70;56.20;;;;;;20477;6767;308806;-72
2023/01/13 12:02:14;;;;;;;0.60;0.60;;;9.80;55.90;;;;;;19433;7141;326418;-73
2023/01/13 12:05:00;;;;;;;0.50;0.47;;;9.90;55.70;;;;;;20571;6765;307351;-70
2023/01/13 12:07:52;;;;;;;0.40;0.30;;;10.00;54.90;;;;;;20558;6770;312028;-71
2023/01/13 12:10:37;;;;;;;0.63;0.30;;;10.10;54.40;;;;;;20227;6823;121229;-71
2023/01/13 12:13:22;;;;;;;0.97;0.83;;;9.80;56.10;;;;;;20544;6796;121577;-71
2023/01/13 12:16:24;;;;;;;0.60;0.60;;;9.40;57.00;;;;;;20647;6754;311198;-71
2023/01/13 12:19:29;;;;;;;0.70;0.33;;;9.50;57.30;;;;;;20670;6796;116424;-73
2023/01/13 12:22:11;;;;;;;1.80;1.70;;;9.40;57.70;;;;;;20591;6770;307808;-73
2023/01/13 12:24:48;;;;;;;0.93;0.50;;;9.50;57.90;;;;;;20762;6769;117146;-72
2023/01/13 12:27:26;;;;;;;2.77;2.60;;;9.50;58.00;;;;;;20814;6754;116809;-72
2023/01/13 12:30:02;;;;;;;3.33;0.80;;;9.30;58.60;;;;;;20505;6784;340018;-72
2023/01/13 12:32:37;;;;;;;0.60;0.60;;;9.40;58.90;;;;;;20526;6782;278298;-72
2023/01/13 12:35:40;;;;;;;0.70;0.70;;;9.80;58.30;;;;;;20548;6773;277392;-72
2023/01/13 12:38:35;;;;;;;0.87;0.77;;;10.10;56.40;;;;;;20167;6807;308643;-72
2023/01/13 12:41:14;;;;;;;1.30;1.20;;;10.10;56.00;;;;;;20699;6788;117338;-72
2023/01/13 12:46:45;;;;;;;1.48;1.40;;;9.80;57.70;;;;;;19440;7134;291649;-72
2023/01/13 12:49:28;;;;;;;1.17;0.80;;;9.80;57.50;;;;;;19994;6904;319567;-72
2023/01/13 12:52:06;;;;;;;1.50;0.60;;;10.10;55.80;;;;;;20689;6780;117532;-72
2023/01/13 12:54:39;;;;;;;1.40;0.57;;;10.00;55.80;;;;;;20537;6770;335156;-72
2023/01/13 12:57:17;;;;;;;1.07;0.80;;;10.00;54.70;;;;;;20642;6753;306532;-72
2023/01/13 12:59:59;;;;;;;1.43;0.70;;;10.20;54.00;;;;;;20627;6758;117471;-72
2023/01/13 13:02:39;;;;;;;1.37;1.20;;;10.00;53.80;;;;;;20537;6773;277851;-72
2023/01/13 13:05:21;;;;;;;1.90;1.73;;;10.00;54.30;;;;;;20597;6758;306835;-72
2023/01/13 13:08:03;;;;;;;1.10;0.60;;;10.20;54.20;;;;;;20546;6758;296011;-72
2023/01/13 13:10:39;;;;;;;1.52;0.70;;;10.40;53.80;;;;;;20513;6773;341681;-73
2023/01/13 13:13:35;;;;;;;2.20;1.67;;;10.60;53.50;;;;;;20548;6784;289114;-74
2023/01/13 13:16:27;;;;;;;2.50;0.90;;;10.70;53.10;;;;;;20528;6769;289461;-75
2023/01/13 13:19:20;;;;;;;2.77;1.30;;;10.70;53.10;;;;;;20497;6773;299934;-73
2023/01/13 13:22:08;;;;;;;2.57;1.40;;;10.80;53.20;;;;;;20749;6773;117855;-73
2023/01/13 13:24:53;;;;;;;2.70;1.30;;;10.60;53.80;;;;;;20844;6754;121618;-72
2023/01/13 13:27:39;;;;;;;1.57;1.00;;;10.20;54.70;;;;;;20625;6758;279972;-73
2023/01/13 13:30:27;;;;;;;2.90;1.02;;;10.30;54.80;;;;;;20517;6766;317037;-74
2023/01/13 13:33:27;;;;;;;2.40;1.10;;;10.50;54.70;;;;;;20848;6751;117510;-73
2023/01/13 13:36:32;;;;;;;2.23;1.00;;;10.50;54.50;;;;;;20540;6765;308113;-74
2023/01/13 13:48:18;;;;;;;2.67;1.40;;;10.30;54.10;;;;;;20750;6753;118681;-75
2023/01/13 13:50:56;;;;;;;3.17;2.30;;;9.70;56.20;;;;;;20872;6736;120061;-74
2023/01/13 13:53:30;;;;;;;3.77;2.53;;;9.70;56.20;;;;;;20805;6758;120702;-72
2023/01/13 13:56:06;;;;;;;2.57;2.47;;;9.60;56.80;;;;;;20834;6745;118677;-75
2023/01/13 13:58:41;;;;;;;2.60;1.33;;;9.40;57.20;;;;;;20541;6742;280025;-74
2023/01/13 14:01:19;;;;;;;3.25;2.53;;;9.70;56.60;;;;;;20629;6739;338615;-75
2023/01/13 14:04:11;;;;;;;1.73;1.23;;;10.10;54.80;;;;;;20731;6795;116893;-75
2023/01/13 14:06:53;;;;;;;2.50;1.63;;;10.10;55.00;;;;;;20821;6738;120467;-75
2023/01/13 14:09:29;;;;;;;2.20;1.10;;;9.90;56.40;;;;;;20416;6738;280731;-75
2023/01/13 14:12:05;;;;;;;1.85;0.88;;;10.40;54.20;;;;;;20522;6812;338419;-75
2023/01/13 14:14:44;;;;;;;3.37;1.27;;;10.40;54.20;;;;;;20779;6746;117536;-75
2023/01/13 14:17:26;;;;;;;3.07;1.47;;;10.40;54.40;;;;;;20557;6753;281546;-75